createdAt,value
2018-04-19T00:00:00.131Z,44.28
2018-04-19T00:00:59.945Z,44.28
2018-04-19T00:02:00.034Z,44.28
2018-04-19T00:02:59.993Z,44.3
2018-04-19T00:03:59.878Z,44.29
2018-04-19T00:04:59.980Z,44.26
2018-04-19T00:05:59.957Z,44.24
2018-04-19T00:06:59.880Z,44.31
2018-04-19T00:08:00.008Z,44.18
2018-04-19T00:09:00.043Z,44.25
2018-04-19T00:09:59.889Z,44.22
2018-04-19T00:11:00.016Z,44.24
2018-04-19T00:11:59.995Z,44.27
2018-04-19T00:12:59.989Z,44.31
2018-04-19T00:14:00.030Z,44.23
2018-04-19T00:14:59.946Z,44.28
2018-04-19T00:15:59.886Z,44.3
2018-04-19T00:16:59.984Z,44.2
2018-04-19T00:17:59.895Z,44.22
2018-04-19T00:18:59.993Z,44.3
2018-04-19T00:20:00.120Z,44.14
2018-04-19T00:20:59.876Z,44.27
2018-04-19T00:21:59.912Z,44.29
2018-04-19T00:23:00.096Z,44.21
2018-04-19T00:24:00.156Z,44.28
2018-04-19T00:24:59.947Z,44.26
2018-04-19T00:26:00.081Z,44.21
2018-04-19T00:26:59.948Z,44.33
2018-04-19T00:28:00.057Z,44.4
2018-04-19T00:29:00.107Z,44.22
2018-04-19T00:29:59.909Z,44.28
2018-04-19T00:30:59.963Z,44.29
2018-04-19T00:32:00.063Z,44.21
2018-04-19T00:33:00.053Z,44.3
2018-04-19T00:33:59.926Z,44.32
2018-04-19T00:35:00.353Z,44.2
2018-04-19T00:36:00.165Z,44.27
2018-04-19T00:36:59.999Z,44.24
2018-04-19T00:37:59.829Z,44.23
2018-04-19T00:38:59.952Z,44.27
2018-04-19T00:39:59.879Z,44.28
2018-04-19T00:40:59.994Z,44.21
2018-04-19T00:41:59.890Z,44.28
2018-04-19T00:43:00.028Z,44.32
2018-04-19T00:43:59.966Z,44.12
2018-04-19T00:45:00.053Z,44.19
2018-04-19T00:46:00.031Z,44.28
2018-04-19T00:46:59.870Z,44.25
2018-04-19T00:47:59.814Z,44.28
2018-04-19T00:48:59.972Z,44.29
2018-04-19T00:49:59.870Z,44.27
2018-04-19T00:50:59.928Z,44.22
2018-04-19T00:51:59.901Z,44.25
2018-04-19T00:52:59.900Z,44.17
2018-04-19T00:53:59.917Z,44.26
2018-04-19T00:55:00.056Z,44.22
2018-04-19T00:55:59.977Z,44.14
2018-04-19T00:56:59.901Z,44.23
2018-04-19T00:57:59.913Z,44.27
2018-04-19T00:59:00.012Z,44.23
2018-04-19T00:59:59.875Z,44.24
2018-04-19T01:00:59.934Z,44.31
2018-04-19T01:01:59.906Z,44.16
2018-04-19T01:03:00.016Z,44.23
2018-04-19T01:03:59.934Z,44.25
2018-04-19T01:05:00.047Z,44.19
2018-04-19T01:05:59.937Z,44.19
2018-04-19T01:06:59.819Z,44.26
2018-04-19T01:07:59.893Z,44.12
2018-04-19T01:08:59.934Z,44.11
2018-04-19T01:09:59.949Z,44.3
2018-04-19T01:11:00.006Z,44.22
2018-04-19T01:11:59.971Z,44.21
2018-04-19T01:12:59.906Z,44.31
2018-04-19T01:14:00.034Z,44.16
2018-04-19T01:15:00.002Z,44.2
2018-04-19T01:15:59.918Z,44.26
2018-04-19T01:16:59.836Z,44.22
2018-04-19T01:17:59.822Z,44.2
2018-04-19T01:18:59.841Z,44.23
2018-04-19T01:19:59.909Z,44.09
2018-04-19T01:20:59.875Z,44.26
2018-04-19T01:21:59.902Z,44.17
2018-04-19T01:22:59.997Z,44.17
2018-04-19T01:23:59.911Z,44.2
2018-04-19T01:25:00.084Z,44.23
2018-04-19T01:25:59.832Z,44.22
2018-04-19T01:27:00.041Z,44.25
2018-04-19T01:27:59.914Z,44.31
2018-04-19T01:28:59.999Z,44.17
2018-04-19T01:29:59.895Z,44.23
2018-04-19T01:30:59.966Z,44.21
2018-04-19T01:31:59.864Z,44.16
2018-04-19T01:33:00.086Z,44.19
2018-04-19T01:34:00.044Z,44.3
2018-04-19T01:34:59.873Z,44.21
2018-04-19T01:36:00.112Z,44.25
2018-04-19T01:36:59.922Z,44.23
2018-04-19T01:37:59.951Z,44.22
2018-04-19T01:39:00.119Z,44.15
2018-04-19T01:40:00.137Z,44.29
2018-04-19T01:40:59.942Z,44.22
2018-04-19T01:41:59.953Z,44.2
2018-04-19T01:42:59.971Z,44.25
2018-04-19T01:43:59.930Z,44.22
2018-04-19T01:44:59.824Z,44.2
2018-04-19T01:46:00.021Z,44.21
2018-04-19T01:46:59.902Z,44.21
2018-04-19T01:47:59.838Z,44.22
2018-04-19T01:48:59.943Z,44.26
2018-04-19T01:50:00.039Z,44.17
2018-04-19T01:51:00.037Z,44.25
2018-04-19T01:51:59.944Z,44.21
2018-04-19T01:52:59.980Z,44.25
2018-04-19T01:53:59.906Z,44.29
2018-04-19T01:54:59.856Z,44.25
2018-04-19T01:56:00.030Z,44.22
2018-04-19T01:56:59.903Z,44.27
2018-04-19T01:58:00.060Z,44.24
2018-04-19T01:58:59.924Z,44.17
2018-04-19T02:00:00.064Z,44.16
2018-04-19T02:00:59.948Z,44.19
2018-04-19T02:01:59.989Z,44.15
2018-04-19T02:02:59.874Z,44.24
2018-04-19T02:04:02.074Z,44.22
2018-04-19T02:05:00.118Z,44.2
2018-04-19T02:06:00.123Z,44.22
2018-04-19T02:07:00.040Z,44.28
2018-04-19T02:08:00.076Z,44.18
2018-04-19T02:08:59.877Z,44.21
2018-04-19T02:09:59.832Z,44.13
2018-04-19T02:11:00.025Z,44.17
2018-04-19T02:12:00.006Z,44.27
2018-04-19T02:13:00.001Z,44.22
2018-04-19T02:13:59.993Z,44.2
2018-04-19T02:14:59.926Z,44.23
2018-04-19T02:16:00.014Z,44.2
2018-04-19T02:16:59.817Z,44.22
2018-04-19T02:18:00.036Z,44.25
2018-04-19T02:18:59.914Z,44.28
2018-04-19T02:19:59.914Z,44.25
2018-04-19T02:20:59.868Z,44.18
2018-04-19T02:22:00.015Z,44.19
2018-04-19T02:22:59.791Z,44.25
2018-04-19T02:23:59.949Z,44.13
2018-04-19T02:24:59.850Z,44.24
2018-04-19T02:25:59.827Z,44.27
2018-04-19T02:26:59.924Z,44.32
2018-04-19T02:27:59.914Z,44.31
2018-04-19T02:28:59.960Z,44.23
2018-04-19T02:30:00.020Z,44.26
2018-04-19T02:31:00.079Z,44.21
2018-04-19T02:32:00.142Z,44.05
2018-04-19T02:33:00.057Z,44.22
2018-04-19T02:34:00.011Z,44.21
2018-04-19T02:35:00.049Z,44.16
2018-04-19T02:36:01.524Z,44.19
2018-04-19T02:36:59.911Z,44.23
2018-04-19T02:37:59.968Z,44.22
2018-04-19T02:38:59.910Z,44.23
2018-04-19T02:39:59.994Z,44.33
2018-04-19T02:40:59.830Z,44.24
2018-04-19T02:41:59.879Z,44.27
2018-04-19T02:43:00.032Z,44.23
2018-04-19T02:44:00.011Z,44.21
2018-04-19T02:44:59.784Z,44.21
2018-04-19T02:46:00.013Z,44.2
2018-04-19T02:46:59.982Z,44.2
2018-04-19T02:47:59.982Z,44.19
2018-04-19T02:49:00.836Z,44.16
2018-04-19T02:50:00.042Z,44.2
2018-04-19T02:50:59.911Z,44.29
2018-04-19T02:51:59.930Z,44.22
2018-04-19T02:52:59.866Z,44.19
2018-04-19T02:54:00.084Z,44.23
2018-04-19T02:55:00.046Z,44.22
2018-04-19T02:55:59.925Z,44.2
2018-04-19T02:56:59.900Z,44.16
2018-04-19T02:57:59.959Z,44.24
2018-04-19T02:58:59.952Z,44.15
2018-04-19T02:59:59.834Z,44.26
2018-04-19T03:00:59.926Z,44.27
2018-04-19T03:01:59.818Z,44.17
2018-04-19T03:02:59.999Z,44.21
2018-04-19T03:04:00.009Z,44.18
2018-04-19T03:04:59.963Z,44.2
2018-04-19T03:05:59.968Z,44.23
2018-04-19T03:06:59.956Z,44.25
2018-04-19T03:08:00.096Z,44.1
2018-04-19T03:09:00.079Z,44.2
2018-04-19T03:09:59.808Z,44.22
2018-04-19T03:10:59.859Z,44.23
2018-04-19T03:11:59.963Z,44.25
2018-04-19T03:13:00.012Z,44.2
2018-04-19T03:14:00.142Z,44.14
2018-04-19T03:14:59.812Z,44.19
2018-04-19T03:16:02.570Z,44.26
2018-04-19T03:16:59.960Z,44.13
2018-04-19T03:17:59.867Z,44.18
2018-04-19T03:19:00.041Z,44.2
2018-04-19T03:19:59.917Z,44.17
2018-04-19T03:20:59.804Z,44.18
2018-04-19T03:21:59.806Z,44.14
2018-04-19T03:23:00.066Z,44.19
2018-04-19T03:23:59.847Z,44.19
2018-04-19T03:24:59.925Z,44.25
2018-04-19T03:25:59.923Z,44.17
2018-04-19T03:26:59.913Z,44.22
2018-04-19T03:27:59.825Z,44.27
2018-04-19T03:29:00.087Z,44.18
2018-04-19T03:29:59.856Z,44.2
2018-04-19T03:31:00.036Z,44.21
2018-04-19T03:32:00.005Z,44.19
2018-04-19T03:33:00.049Z,44.19
2018-04-19T03:33:59.901Z,44.25
2018-04-19T03:34:59.846Z,44.23
2018-04-19T03:35:59.879Z,44.24
2018-04-19T03:37:00.020Z,44.28
2018-04-19T03:38:00.065Z,44.16
2018-04-19T03:38:59.905Z,44.23
2018-04-19T03:39:59.823Z,44.24
2018-04-19T03:41:00.091Z,44.21
2018-04-19T03:41:59.893Z,44.25
2018-04-19T03:42:59.984Z,44.25
2018-04-19T03:43:59.886Z,44.25
2018-04-19T03:44:59.916Z,44.25
2018-04-19T03:45:59.863Z,44.22
2018-04-19T03:46:59.889Z,44.15
2018-04-19T03:47:59.789Z,44.2
2018-04-19T03:48:59.912Z,44.22
2018-04-19T03:49:59.944Z,44.23
2018-04-19T03:51:00.086Z,44.32
2018-04-19T03:51:59.917Z,44.24
2018-04-19T03:52:59.854Z,44.23
2018-04-19T03:53:59.790Z,44.27
2018-04-19T03:54:59.894Z,44.27
2018-04-19T03:56:00.034Z,44.23
2018-04-19T03:56:59.955Z,44.29
2018-04-19T03:57:59.967Z,44.29
2018-04-19T03:58:59.773Z,44.19
2018-04-19T03:59:59.837Z,44.23
2018-04-19T04:00:59.978Z,44.18
2018-04-19T04:01:59.946Z,44.2
2018-04-19T04:02:59.966Z,44.23
2018-04-19T04:03:59.830Z,44.23
2018-04-19T04:04:59.951Z,44.15
2018-04-19T04:05:59.956Z,44.2
2018-04-19T04:06:59.906Z,44.2
2018-04-19T04:07:59.988Z,44.18
2018-04-19T04:08:59.857Z,44.19
2018-04-19T04:09:59.830Z,44.2
2018-04-19T04:10:59.943Z,44.15
2018-04-19T04:11:59.980Z,44.23
2018-04-19T04:13:00.031Z,44.22
2018-04-19T04:13:59.927Z,44.16
2018-04-19T04:14:59.924Z,44.19
2018-04-19T04:15:59.944Z,44.21
2018-04-19T04:16:59.893Z,44.21
2018-04-19T04:17:59.758Z,44.27
2018-04-19T04:18:59.859Z,44.24
2018-04-19T04:19:59.949Z,44.16
2018-04-19T04:20:59.933Z,44.25
2018-04-19T04:21:59.900Z,44.26
2018-04-19T04:22:59.911Z,44.21
2018-04-19T04:23:59.960Z,44.21
2018-04-19T04:24:59.995Z,44.22
2018-04-19T04:25:59.848Z,44.19
2018-04-19T04:26:59.968Z,44.26
2018-04-19T04:27:59.938Z,44.27
2018-04-19T04:28:59.768Z,44.14
2018-04-19T04:29:59.811Z,44.23
2018-04-19T04:31:00.062Z,44.23
2018-04-19T04:31:59.987Z,44.17
2018-04-19T04:32:59.753Z,44.2
2018-04-19T04:33:59.784Z,44.14
2018-04-19T04:34:59.872Z,44.12
2018-04-19T04:35:59.866Z,44.25
2018-04-19T04:36:59.779Z,44.2
2018-04-19T04:37:59.850Z,44.2
2018-04-19T04:38:59.812Z,44.15
2018-04-19T04:39:59.936Z,44.22
2018-04-19T04:40:59.972Z,44.23
2018-04-19T04:41:59.922Z,44.21
2018-04-19T04:43:00.010Z,44.25
2018-04-19T04:44:00.030Z,44.14
2018-04-19T04:44:59.793Z,44.19
2018-04-19T04:45:59.935Z,44.19
2018-04-19T04:46:59.756Z,44.17
2018-04-19T04:47:59.949Z,44.17
2018-04-19T04:48:59.810Z,44.27
2018-04-19T04:49:59.975Z,44.13
2018-04-19T04:50:59.878Z,44.18
2018-04-19T04:51:59.892Z,44.22
2018-04-19T04:52:59.877Z,44.23
2018-04-19T04:53:59.903Z,44.26
2018-04-19T04:54:59.977Z,44.11
2018-04-19T04:55:59.869Z,44.13
2018-04-19T04:56:59.996Z,44.21
2018-04-19T04:57:59.860Z,44.17
2018-04-19T04:58:59.920Z,43.97
2018-04-19T04:59:59.885Z,44.25
2018-04-19T05:00:59.818Z,44.24
2018-04-19T05:01:59.921Z,44.15
2018-04-19T05:02:59.873Z,44.15
2018-04-19T05:03:59.889Z,44.14
2018-04-19T05:05:00.003Z,44.14
2018-04-19T05:05:59.803Z,44.2
2018-04-19T05:06:59.785Z,44.17
2018-04-19T05:07:59.823Z,44.21
2018-04-19T05:08:59.915Z,44.2
2018-04-19T05:10:00.073Z,44.19
2018-04-19T05:11:00.013Z,44.12
2018-04-19T05:11:59.965Z,44.22
2018-04-19T05:13:00.004Z,44.21
2018-04-19T05:13:59.746Z,44.09
2018-04-19T05:14:59.769Z,44.19
2018-04-19T05:15:59.990Z,44.16
2018-04-19T05:16:59.991Z,44.13
2018-04-19T05:17:59.860Z,44.22
2018-04-19T05:19:00.011Z,44.18
2018-04-19T05:19:59.744Z,44.15
2018-04-19T05:20:59.956Z,44.19
2018-04-19T05:21:59.933Z,44.2
2018-04-19T05:22:59.972Z,44.19
2018-04-19T05:23:59.840Z,44.17
2018-04-19T05:24:59.942Z,44.17
2018-04-19T05:26:00.006Z,44.1
2018-04-19T05:26:59.954Z,44.24
2018-04-19T05:27:59.834Z,44.16
2018-04-19T05:28:59.908Z,44.26
2018-04-19T05:29:59.943Z,44.2
2018-04-19T05:30:59.881Z,44.16
2018-04-19T05:31:59.944Z,44.17
2018-04-19T05:32:59.886Z,44.14
2018-04-19T05:33:59.782Z,44.14
2018-04-19T05:34:59.776Z,44.19
2018-04-19T05:35:59.789Z,44.19
2018-04-19T05:36:59.812Z,44.14
2018-04-19T05:37:59.897Z,44.1
2018-04-19T05:38:59.925Z,44.17
2018-04-19T05:39:59.900Z,44.1
2018-04-19T05:40:59.995Z,44.06
2018-04-19T05:42:00.048Z,44.18
2018-04-19T05:42:59.969Z,44.12
2018-04-19T05:43:59.911Z,44.12
2018-04-19T05:44:59.738Z,44.21
2018-04-19T05:45:59.950Z,44.29
2018-04-19T05:46:59.858Z,43.98
2018-04-19T05:47:59.921Z,44.23
2018-04-19T05:48:59.933Z,44.19
2018-04-19T05:49:59.778Z,44.11
2018-04-19T05:50:59.830Z,44.15
2018-04-19T05:52:00.069Z,44.2
2018-04-19T05:52:59.714Z,44.19
2018-04-19T05:53:59.862Z,44.14
2018-04-19T05:54:59.886Z,44.18
2018-04-19T05:55:59.971Z,44.17
2018-04-19T05:57:00.097Z,44.11
2018-04-19T05:57:59.887Z,44.23
2018-04-19T05:58:59.959Z,44.13
2018-04-19T05:59:59.777Z,44.2
2018-04-19T06:00:59.951Z,44.16
2018-04-19T06:01:59.816Z,44.14
2018-04-19T06:02:59.906Z,44.13
2018-04-19T06:03:59.894Z,44.16
2018-04-19T06:04:59.916Z,44.1
2018-04-19T06:05:59.909Z,44.18
2018-04-19T06:06:59.804Z,44.11
2018-04-19T06:08:00.018Z,44.07
2018-04-19T06:08:59.938Z,44.06
2018-04-19T06:09:59.940Z,44.21
2018-04-19T06:10:59.961Z,44.15
2018-04-19T06:11:59.775Z,44.07
2018-04-19T06:12:59.916Z,44.15
2018-04-19T06:13:59.924Z,44.06
2018-04-19T06:14:59.932Z,44.19
2018-04-19T06:15:59.826Z,44.16
2018-04-19T06:17:00.035Z,44.1
2018-04-19T06:17:59.887Z,44.16
2018-04-19T06:18:59.939Z,44.17
2018-04-19T06:19:59.821Z,44.12
2018-04-19T06:21:00.002Z,44.12
2018-04-19T06:21:59.764Z,44.13
2018-04-19T06:22:59.927Z,44.07
2018-04-19T06:24:00.013Z,44.14
2018-04-19T06:24:59.911Z,44.14
2018-04-19T06:25:59.971Z,44.1
2018-04-19T06:27:00.046Z,44.16
2018-04-19T06:27:59.842Z,44.11
2018-04-19T06:28:59.893Z,44.06
2018-04-19T06:29:59.882Z,44.07
2018-04-19T06:30:59.813Z,44.11
2018-04-19T06:32:00.079Z,44.09
2018-04-19T06:32:59.920Z,44.06
2018-04-19T06:34:00.005Z,44.13
2018-04-19T06:34:59.751Z,44.01
2018-04-19T06:35:59.979Z,44.11
2018-04-19T06:36:59.894Z,44.14
2018-04-19T06:37:59.834Z,44.05
2018-04-19T06:38:59.817Z,44.14
2018-04-19T06:39:59.827Z,44.07
2018-04-19T06:40:59.936Z,44.03
2018-04-19T06:41:59.749Z,44.09
2018-04-19T06:42:59.899Z,44.09
2018-04-19T06:43:59.888Z,44.07
2018-04-19T06:44:59.801Z,44.11
2018-04-19T06:45:59.878Z,44.09
2018-04-19T06:46:59.809Z,44.11
2018-04-19T06:47:59.785Z,43.99
2018-04-19T06:48:59.913Z,44.07
2018-04-19T06:50:01.730Z,43.98
2018-04-19T06:50:59.753Z,44.08
2018-04-19T06:51:59.919Z,44.02
2018-04-19T06:52:59.731Z,43.98
2018-04-19T06:53:59.788Z,44.1
2018-04-19T06:54:59.937Z,44.04
2018-04-19T06:55:59.836Z,44.13
2018-04-19T06:56:59.919Z,44.05
2018-04-19T06:57:59.936Z,44.08
2018-04-19T06:58:59.837Z,43.99
2018-04-19T06:59:59.832Z,44.05
2018-04-19T07:00:59.851Z,44.07
2018-04-19T07:01:59.760Z,43.94
2018-04-19T07:02:59.699Z,44.03
2018-04-19T07:03:59.860Z,44.04
2018-04-19T07:04:59.875Z,44
2018-04-19T07:05:59.944Z,44.13
2018-04-19T07:06:59.972Z,44.09
2018-04-19T07:07:59.971Z,44.02
2018-04-19T07:08:59.840Z,44.06
2018-04-19T07:09:59.784Z,44.03
2018-04-19T07:10:59.784Z,44.02
2018-04-19T07:11:59.801Z,44
2018-04-19T07:12:59.782Z,44.03
2018-04-19T07:13:59.918Z,44.02
2018-04-19T07:14:59.849Z,44.04
2018-04-19T07:15:59.899Z,44.01
2018-04-19T07:16:59.888Z,43.96
2018-04-19T07:17:59.971Z,43.98
2018-04-19T07:19:00.043Z,43.97
2018-04-19T07:19:59.701Z,44.01
2018-04-19T07:20:59.768Z,44
2018-04-19T07:21:59.795Z,44.03
2018-04-19T07:22:59.900Z,43.94
2018-04-19T07:23:59.969Z,44.03
2018-04-19T07:24:59.925Z,44.02
2018-04-19T07:25:59.717Z,43.96
2018-04-19T07:26:59.963Z,43.98
2018-04-19T07:27:59.932Z,44
2018-04-19T07:28:59.980Z,43.97
2018-04-19T07:29:59.875Z,44.05
2018-04-19T07:30:59.827Z,44.03
2018-04-19T07:31:59.975Z,44
2018-04-19T07:32:59.700Z,44.03
2018-04-19T07:33:59.732Z,44.03
2018-04-19T07:34:59.885Z,43.96
2018-04-19T07:35:59.736Z,44.02
2018-04-19T07:36:59.885Z,44.02
2018-04-19T07:37:59.865Z,43.96
2018-04-19T07:38:59.970Z,43.98
2018-04-19T07:39:59.899Z,44.04
2018-04-19T07:41:01.723Z,43.92
2018-04-19T07:41:59.933Z,44.06
2018-04-19T07:42:59.999Z,44.01
2018-04-19T07:44:00.042Z,43.98
2018-04-19T07:44:59.885Z,44
2018-04-19T07:45:59.865Z,44.02
2018-04-19T07:46:59.887Z,44.03
2018-04-19T07:47:59.887Z,44.02
2018-04-19T07:48:59.938Z,44.06
2018-04-19T07:49:59.873Z,43.9
2018-04-19T07:50:59.801Z,43.98
2018-04-19T07:51:59.916Z,44.06
2018-04-19T07:52:59.885Z,43.9
2018-04-19T07:53:59.700Z,44.01
2018-04-19T07:54:59.768Z,43.99
2018-04-19T07:55:59.753Z,43.93
2018-04-19T07:56:59.788Z,44.01
2018-04-19T07:57:59.865Z,44.05
2018-04-19T07:58:59.885Z,44.04
2018-04-19T07:59:59.717Z,44.02
2018-04-19T08:00:59.838Z,44.01
2018-04-19T08:01:59.869Z,43.95
2018-04-19T08:02:59.712Z,44
2018-04-19T08:03:59.973Z,44.05
2018-04-19T08:04:59.766Z,43.93
2018-04-19T08:05:59.791Z,43.98
2018-04-19T08:06:59.938Z,44.01
2018-04-19T08:07:59.752Z,43.96
2018-04-19T08:08:59.838Z,44
2018-04-19T08:09:59.848Z,44.07
2018-04-19T08:10:59.782Z,43.98
2018-04-19T08:11:59.786Z,44.05
2018-04-19T08:12:59.685Z,44.06
2018-04-19T08:13:59.810Z,43.95
2018-04-19T08:15:01.022Z,44.04
2018-04-19T08:15:59.907Z,44.03
2018-04-19T08:16:59.924Z,43.96
2018-04-19T08:17:59.801Z,44
2018-04-19T08:18:59.917Z,44.01
2018-04-19T08:19:59.733Z,43.97
2018-04-19T08:21:00.025Z,44.01
2018-04-19T08:21:59.821Z,43.95
2018-04-19T08:22:59.756Z,43.99
2018-04-19T08:23:59.921Z,44.03
2018-04-19T08:24:59.711Z,44.08
2018-04-19T08:25:59.964Z,43.95
2018-04-19T08:26:59.985Z,44
2018-04-19T08:27:59.959Z,43.95
2018-04-19T08:28:59.764Z,43.93
2018-04-19T08:29:59.857Z,43.96
2018-04-19T08:30:59.837Z,43.98
2018-04-19T08:31:59.695Z,43.95
2018-04-19T08:32:59.854Z,43.98
2018-04-19T08:33:59.805Z,44.02
2018-04-19T08:34:59.825Z,44.04
2018-04-19T08:35:59.909Z,43.98
2018-04-19T08:36:59.825Z,43.99
2018-04-19T08:37:59.804Z,43.92
2018-04-19T08:38:59.966Z,43.9
2018-04-19T08:39:59.688Z,44.05
2018-04-19T08:40:59.717Z,43.91
2018-04-19T08:41:59.764Z,43.94
2018-04-19T08:42:59.711Z,43.95
2018-04-19T08:43:59.874Z,43.96
2018-04-19T08:44:59.774Z,43.96
2018-04-19T08:45:59.797Z,44.02
2018-04-19T08:46:59.943Z,43.91
2018-04-19T08:47:59.805Z,44.05
2018-04-19T08:48:59.979Z,44.02
2018-04-19T08:49:59.852Z,43.95
2018-04-19T08:50:59.694Z,44
2018-04-19T08:51:59.922Z,44.03
2018-04-19T08:52:59.909Z,43.95
2018-04-19T08:53:59.868Z,44.01
2018-04-19T08:54:59.795Z,43.94
2018-04-19T08:55:59.765Z,43.95
2018-04-19T08:56:59.857Z,44.03
2018-04-19T08:57:59.722Z,44.03
2018-04-19T08:58:59.819Z,43.91
2018-04-19T08:59:59.806Z,43.95
2018-04-19T09:00:59.773Z,43.97
2018-04-19T09:01:59.897Z,43.91
2018-04-19T09:02:59.869Z,44
2018-04-19T09:03:59.759Z,44
2018-04-19T09:04:59.909Z,43.93
2018-04-19T09:05:59.757Z,43.89
2018-04-19T09:06:59.771Z,43.95
2018-04-19T09:08:00.007Z,43.92
2018-04-19T09:08:59.800Z,43.99
2018-04-19T09:09:59.700Z,44
2018-04-19T09:10:59.876Z,43.9
2018-04-19T09:11:59.847Z,44.01
2018-04-19T09:12:59.914Z,43.98
2018-04-19T09:13:59.961Z,43.89
2018-04-19T09:14:59.763Z,43.97
2018-04-19T09:15:59.825Z,44.03
2018-04-19T09:16:59.680Z,43.89
2018-04-19T09:18:00.030Z,44.01
2018-04-19T09:18:59.907Z,43.98
2018-04-19T09:20:00.355Z,43.92
2018-04-19T09:20:59.661Z,43.95
2018-04-19T09:21:59.927Z,44.01
2018-04-19T09:22:59.684Z,43.89
2018-04-19T09:23:59.791Z,43.94
2018-04-19T09:24:59.937Z,44.05
2018-04-19T09:25:59.826Z,43.98
2018-04-19T09:26:59.848Z,43.96
2018-04-19T09:27:59.968Z,43.96
2018-04-19T09:28:59.698Z,43.95
2018-04-19T09:29:59.886Z,43.95
2018-04-19T09:30:59.996Z,44.01
2018-04-19T09:31:59.947Z,43.93
2018-04-19T09:32:59.793Z,44.04
2018-04-19T09:33:59.911Z,44
2018-04-19T09:34:59.931Z,43.94
2018-04-19T09:35:59.944Z,43.94
2018-04-19T09:36:59.871Z,43.97
2018-04-19T09:37:59.821Z,43.9
2018-04-19T09:38:59.746Z,43.99
2018-04-19T09:40:00.014Z,43.97
2018-04-19T09:41:00.473Z,43.89
2018-04-19T09:42:00.825Z,43.92
2018-04-19T09:42:59.857Z,43.94
2018-04-19T09:43:59.936Z,43.86
2018-04-19T09:45:00.001Z,44.02
2018-04-19T09:45:59.781Z,43.97
2018-04-19T09:46:59.736Z,43.85
2018-04-19T09:47:59.752Z,43.93
2018-04-19T09:48:59.919Z,44.04
2018-04-19T09:49:59.993Z,43.98
2018-04-19T09:50:59.983Z,43.99
2018-04-19T09:51:59.784Z,43.93
2018-04-19T09:52:59.814Z,43.91
2018-04-19T09:54:00.115Z,44.01
2018-04-19T09:55:00.000Z,43.98
2018-04-19T09:55:59.843Z,43.88
2018-04-19T09:56:59.996Z,43.97
2018-04-19T09:58:02.644Z,43.92
2018-04-19T09:58:59.923Z,43.9
2018-04-19T09:59:59.690Z,44.05
2018-04-19T10:00:59.670Z,43.99
2018-04-19T10:01:59.917Z,43.9
2018-04-19T10:02:59.754Z,43.93
2018-04-19T10:03:59.751Z,43.82
2018-04-19T10:04:59.859Z,43.84
2018-04-19T10:05:59.683Z,44
2018-04-19T10:06:59.772Z,43.98
2018-04-19T10:08:00.058Z,43.88
2018-04-19T10:08:59.858Z,43.89
2018-04-19T10:09:59.762Z,44
2018-04-19T10:10:59.666Z,43.86
2018-04-19T10:11:59.770Z,44.08
2018-04-19T10:12:59.852Z,44.12
2018-04-19T10:13:59.845Z,44.18
2018-04-19T10:14:59.916Z,44.06
2018-04-19T10:15:59.987Z,44.1
2018-04-19T10:16:59.635Z,44.13
2018-04-19T10:17:59.778Z,44.11
2018-04-19T10:18:59.636Z,44.13
2018-04-19T10:19:59.969Z,44.08
2018-04-19T10:20:59.829Z,44.16
2018-04-19T10:21:59.896Z,44.21
2018-04-19T10:22:59.825Z,44.16
2018-04-19T10:23:59.763Z,44.17
2018-04-19T10:24:59.854Z,44.28
2018-04-19T10:25:59.695Z,44.05
2018-04-19T10:26:59.795Z,44.31
2018-04-19T10:27:59.822Z,44.18
2018-04-19T10:28:59.727Z,44.11
2018-04-19T10:29:59.941Z,44.19
2018-04-19T10:30:59.843Z,44.13
2018-04-19T10:31:59.919Z,44.2
2018-04-19T10:33:00.925Z,44.12
2018-04-19T10:33:59.922Z,44.06
2018-04-19T10:34:59.981Z,44.07
2018-04-19T10:35:59.724Z,44.05
2018-04-19T10:36:59.761Z,44.04
2018-04-19T10:37:59.846Z,44.09
2018-04-19T10:38:59.872Z,44.12
2018-04-19T10:39:59.900Z,44.03
2018-04-19T10:40:59.938Z,44.04
2018-04-19T10:41:59.843Z,44.13
2018-04-19T10:42:59.815Z,44.14
2018-04-19T10:43:59.796Z,44.08
2018-04-19T10:44:59.886Z,44.13
2018-04-19T10:45:59.929Z,44.18
2018-04-19T10:46:59.885Z,44.1
2018-04-19T10:48:01.066Z,44.14
2018-04-19T10:48:59.769Z,44.14
2018-04-19T10:49:59.877Z,44.09
2018-04-19T10:50:59.895Z,44.14
2018-04-19T10:51:59.743Z,44.12
2018-04-19T10:52:59.989Z,44.05
2018-04-19T10:53:59.870Z,44.15
2018-04-19T10:54:59.898Z,44.09
2018-04-19T10:55:59.802Z,44.11
2018-04-19T10:56:59.775Z,44.1
2018-04-19T10:57:59.934Z,44.1
2018-04-19T10:58:59.930Z,44.08
2018-04-19T10:59:59.933Z,44.13
2018-04-19T11:01:00.059Z,44.11
2018-04-19T11:01:59.912Z,44.05
2018-04-19T11:02:59.871Z,44.09
2018-04-19T11:03:59.936Z,44.14
2018-04-19T11:04:59.799Z,44.04
2018-04-19T11:06:00.793Z,44.11
2018-04-19T11:06:59.906Z,44.1
2018-04-19T11:08:00.079Z,44.1
2018-04-19T11:09:00.710Z,44.04
2018-04-19T11:09:59.739Z,44.07
2018-04-19T11:10:59.757Z,44.04
2018-04-19T11:11:59.848Z,44.07
2018-04-19T11:12:59.721Z,44.08
2018-04-19T11:13:59.854Z,44.02
2018-04-19T11:14:59.843Z,44.05
2018-04-19T11:15:59.847Z,44.04
2018-04-19T11:16:59.673Z,44.07
2018-04-19T11:18:00.785Z,44.06
2018-04-19T11:18:59.913Z,44.06
2018-04-19T11:19:59.872Z,44.03
2018-04-19T11:20:59.889Z,44.04
2018-04-19T11:21:59.911Z,44.03
2018-04-19T11:22:59.828Z,43.94
2018-04-19T11:23:59.912Z,44
2018-04-19T11:25:00.428Z,44
2018-04-19T11:26:01.406Z,43.97
2018-04-19T11:26:59.956Z,44.01
2018-04-19T11:28:01.441Z,44
2018-04-19T11:28:59.848Z,43.98
2018-04-19T11:29:59.689Z,44.01
2018-04-19T11:31:00.115Z,44.02
2018-04-19T11:32:02.357Z,44.01
2018-04-19T11:33:00.333Z,43.91
2018-04-19T11:34:00.267Z,44
2018-04-19T11:35:00.397Z,43.96
2018-04-19T11:36:00.497Z,43.99
2018-04-19T11:37:00.301Z,44.02
2018-04-19T11:38:00.187Z,43.96
2018-04-19T11:39:00.256Z,43.98
2018-04-19T11:40:00.392Z,43.95
2018-04-19T11:41:00.227Z,44
2018-04-19T11:42:00.732Z,43.95
2018-04-19T11:43:00.049Z,44.01
2018-04-19T11:44:00.674Z,44.04
2018-04-19T11:45:00.862Z,43.95
2018-04-19T11:46:00.481Z,43.94
2018-04-19T11:47:00.403Z,43.94
2018-04-19T11:48:00.938Z,43.91
2018-04-19T11:49:00.134Z,43.97
2018-04-19T11:50:00.167Z,43.95
2018-04-19T11:51:00.383Z,44.06
2018-04-19T11:52:01.265Z,43.94
2018-04-19T11:53:02.160Z,43.96
2018-04-19T11:53:59.990Z,44.02
2018-04-19T11:55:00.707Z,43.93
2018-04-19T11:56:02.688Z,43.95
2018-04-19T11:57:01.019Z,43.91
2018-04-19T11:58:00.238Z,44
2018-04-19T11:58:59.808Z,43.9
2018-04-19T12:00:01.165Z,43.94
2018-04-19T12:01:00.089Z,43.94
2018-04-19T12:01:59.813Z,43.92
2018-04-19T12:03:00.103Z,43.92
2018-04-19T12:03:59.889Z,43.92
2018-04-19T12:04:59.872Z,43.92
2018-04-19T12:06:00.149Z,43.95
2018-04-19T12:06:59.795Z,43.95
2018-04-19T12:07:59.994Z,43.92
2018-04-19T12:09:01.099Z,43.99
2018-04-19T12:09:59.763Z,43.92
2018-04-19T12:11:00.330Z,43.9
2018-04-19T12:12:00.020Z,44.01
2018-04-19T12:12:59.970Z,43.97
2018-04-19T12:14:00.331Z,43.87
2018-04-19T12:14:59.835Z,43.9
2018-04-19T12:16:01.090Z,43.93
2018-04-19T12:16:59.973Z,43.86
2018-04-19T12:17:59.703Z,44
2018-04-19T12:18:59.801Z,43.97
2018-04-19T12:20:00.609Z,44.2
2018-04-19T12:20:59.805Z,44.19
2018-04-19T12:22:01.196Z,44.33
2018-04-19T12:23:00.660Z,44.26
2018-04-19T12:23:59.804Z,44.26
2018-04-19T12:24:59.662Z,44.34
2018-04-19T12:25:59.976Z,44.41
2018-04-19T12:26:59.709Z,44.54
2018-04-19T12:27:59.863Z,44.8
2018-04-19T12:29:00.195Z,44.88
2018-04-19T12:30:00.011Z,44.73
2018-04-19T12:30:59.852Z,44.73
2018-04-19T12:31:59.776Z,44.91
2018-04-19T12:32:59.850Z,44.85
2018-04-19T12:33:59.824Z,44.85
2018-04-19T12:34:59.882Z,44.9
2018-04-19T12:35:59.639Z,44.71
2018-04-19T12:36:59.656Z,44.78
2018-04-19T12:38:01.850Z,44.91
2018-04-19T12:38:59.954Z,44.85
2018-04-19T12:39:59.991Z,44.85
2018-04-19T12:40:59.694Z,44.95
2018-04-19T12:41:59.803Z,44.89
2018-04-19T12:42:59.817Z,44.97
2018-04-19T12:43:59.752Z,45.01
2018-04-19T12:45:00.268Z,44.92
2018-04-19T12:45:59.919Z,44.97
2018-04-19T12:46:59.761Z,45.2
2018-04-19T12:47:59.833Z,44.95
2018-04-19T12:48:59.835Z,45.07
2018-04-19T12:49:59.680Z,44.79
2018-04-19T12:50:59.719Z,44.76
2018-04-19T12:51:59.700Z,44.72
2018-04-19T12:52:59.954Z,44.71
2018-04-19T12:53:59.815Z,44.73
2018-04-19T12:54:59.913Z,44.68
2018-04-19T12:55:59.630Z,44.69
2018-04-19T12:56:59.610Z,44.66